Siasconset, MA (02564)

6:53 AM EDT on September 27, 2016 (GMT -0400)
NOS_NWLON | | Change Station

Elev 0 ft 41.28 °N, 70.10 °W | Updated 1 hour ago

Overcast
Overcast
68 °F
Feels Like 68 °F
N
8
Wind Variable Wind from South
Gusts 17.0 mph

Today
High -- | Low -- °F
--% Chance of Precip.
Yesterday
High -- | Low -- °F
Precip. -- in
Pressure 29.96 in
Visibility 10.0 miles
Clouds Overcast 5000 ft
Dew Point Not available.
Humidity Not available.
Rainfall in
Snow Depth Not available.
6:32 AM 6:27 PM
Waning Crescent, 12% visible
METAR KACK 270953Z 18014KT 10SM OVC050 19/16 A2996 RMK AO2 SLP143 T01940161
Pressure 29.96 in
Visibility 10.0 miles
Clouds Overcast 5000 ft
Dew Point Not available.
Humidity Not available.
Rainfall in
Snow Depth Not available.
6:32 AM 6:27 PM
Waning Crescent, 12% visible
METAR KACK 270953Z 18014KT 10SM OVC050 19/16 A2996 RMK AO2 SLP143 T01940161

10-Day Weather Forecast

Almanac

Astronomy

Sep. 27, 2016 Rise Set
Actual Time
Civil Twilight
Nautical Twilight
Astronomical Twilight
Moon
Length of Visible Light
Length of Day
Tomorrow will be .
, % of the Moon is Illuminated

Today's Extremes

State Highs State Lows

Community

WunderPhotos

Upload Photos

1,942,057 photos uploaded!

WunderBlog® & News

Nearby

Air Quality

  Air Quality AQ Index Pollutant
Not available.

Snow Depth

Station Depth Elevation

Earthquake Activity

City Distance Mag. Time & Date
Minimum magnitude displayed is 2.5.

Coastal Water Temperatures

Place Temperature

Stations

Nearby Weather Stations

Station Location Temp. Windchill Dew Point Humidity Wind Precip. Elev Updated Type
                   

Watches & Warnings

There are currently no watches in effect.